sensor_id;sensor_type;location;lat;lon;timestamp;pressure;altitude;pressure_sealevel;temperature;humidity
55113;BME280;41006;50.920;3.456;2022-08-18T00:00:30;101129.19;;;26.12;62.17
55113;BME280;41006;50.920;3.456;2022-08-18T00:01:01;101128.66;;;26.07;62.27
55113;BME280;41006;50.920;3.456;2022-08-18T00:01:32;101129.34;;;25.97;62.52
55113;BME280;41006;50.920;3.456;2022-08-18T00:02:39;101129.34;;;25.97;62.75
55113;BME280;41006;50.920;3.456;2022-08-18T00:03:10;101127.63;;;25.96;62.39
55113;BME280;41006;50.920;3.456;2022-08-18T00:03:41;101129.13;;;25.88;62.49
55113;BME280;41006;50.920;3.456;2022-08-18T00:04:14;101127.28;;;25.88;62.82
55113;BME280;41006;50.920;3.456;2022-08-18T00:04:45;101122.59;;;25.90;62.78
55113;BME280;41006;50.920;3.456;2022-08-18T00:05:15;101127.19;;;25.90;62.68
55113;BME280;41006;50.920;3.456;2022-08-18T00:05:45;101120.31;;;25.84;62.73
55113;BME280;41006;50.920;3.456;2022-08-18T00:06:16;101127.81;;;25.93;62.51
55113;BME280;41006;50.920;3.456;2022-08-18T00:06:47;101122.50;;;25.79;63.34
55113;BME280;41006;50.920;3.456;2022-08-18T00:07:21;101124.59;;;25.75;63.51
55113;BME280;41006;50.920;3.456;2022-08-18T00:07:54;101123.06;;;25.71;63.22
55113;BME280;41006;50.920;3.456;2022-08-18T00:08:24;101129.16;;;25.75;63.72
55113;BME280;41006;50.920;3.456;2022-08-18T00:08:59;101129.94;;;25.64;63.95
55113;BME280;41006;50.920;3.456;2022-08-18T00:09:33;101120.34;;;25.71;63.64
55113;BME280;41006;50.920;3.456;2022-08-18T00:10:05;101129.16;;;25.75;63.20
55113;BME280;41006;50.920;3.456;2022-08-18T00:10:39;101127.75;;;25.69;63.26
55113;BME280;41006;50.920;3.456;2022-08-18T00:11:12;101123.13;;;25.45;63.85
55113;BME280;41006;50.920;3.456;2022-08-18T00:11:43;101122.69;;;25.39;64.36
55113;BME280;41006;50.920;3.456;2022-08-18T00:12:20;101125.94;;;25.44;64.36
55113;BME280;41006;50.920;3.456;2022-08-18T00:12:53;101125.47;;;25.63;64.26
55113;BME280;41006;50.920;3.456;2022-08-18T00:13:26;101137.66;;;25.70;63.71
55113;BME280;41006;50.920;3.456;2022-08-18T00:13:56;101129.16;;;25.75;63.43
55113;BME280;41006;50.920;3.456;2022-08-18T00:14:26;101129.69;;;25.80;63.44
55113;BME280;41006;50.920;3.456;2022-08-18T00:14:57;101127.41;;;25.74;63.44
55113;BME280;41006;50.920;3.456;2022-08-18T00:15:30;101126.31;;;25.76;62.99
55113;BME280;41006;50.920;3.456;2022-08-18T00:16:03;101131.19;;;25.84;63.13
55113;BME280;41006;50.920;3.456;2022-08-18T00:16:36;101133.06;;;25.83;63.04
55113;BME280;41006;50.920;3.456;2022-08-18T00:17:06;101124.16;;;25.81;62.90
55113;BME280;41006;50.920;3.456;2022-08-18T00:17:39;101124.00;;;25.83;63.23
55113;BME280;41006;50.920;3.456;2022-08-18T00:18:14;101124.56;;;25.88;62.88
55113;BME280;41006;50.920;3.456;2022-08-18T00:18:44;101125.75;;;25.84;63.17
55113;BME280;41006;50.920;3.456;2022-08-18T00:19:15;101128.91;;;25.78;63.06
55113;BME280;41006;50.920;3.456;2022-08-18T00:19:48;101124.38;;;25.78;63.16
55113;BME280;41006;50.920;3.456;2022-08-18T00:20:21;101125.13;;;25.80;63.17
55113;BME280;41006;50.920;3.456;2022-08-18T00:20:51;101124.00;;;25.83;63.11
55113;BME280;41006;50.920;3.456;2022-08-18T00:21:26;101128.69;;;25.81;62.83
55113;BME280;41006;50.920;3.456;2022-08-18T00:21:59;101122.28;;;25.82;63.22
55113;BME280;41006;50.920;3.456;2022-08-18T00:22:32;101125.13;;;25.80;62.86
55113;BME280;41006;50.920;3.456;2022-08-18T00:23:02;101125.72;;;25.60;64.18
55113;BME280;41006;50.920;3.456;2022-08-18T00:23:33;101124.38;;;25.65;63.87
55113;BME280;41006;50.920;3.456;2022-08-18T00:24:03;101125.66;;;25.73;63.28
55113;BME280;41006;50.920;3.456;2022-08-18T00:24:37;101121.88;;;25.75;62.92
55113;BME280;41006;50.920;3.456;2022-08-18T00:25:08;101121.75;;;25.77;63.05
55113;BME280;41006;50.920;3.456;2022-08-18T00:25:41;101115.81;;;25.72;63.03
55113;BME280;41006;50.920;3.456;2022-08-18T00:26:11;101120.25;;;25.73;63.28
55113;BME280;41006;50.920;3.456;2022-08-18T00:26:42;101112.88;;;25.75;63.03
55113;BME280;41006;50.920;3.456;2022-08-18T00:27:12;101117.81;;;25.81;62.95
55113;BME280;41006;50.920;3.456;2022-08-18T00:27:42;101115.09;;;25.81;62.83
55113;BME280;41006;50.920;3.456;2022-08-18T00:28:15;101112.59;;;25.78;62.67
55113;BME280;41006;50.920;3.456;2022-08-18T00:28:46;101118.41;;;25.73;63.15
55113;BME280;41006;50.920;3.456;2022-08-18T00:29:16;101113.19;;;25.70;63.26
55113;BME280;41006;50.920;3.456;2022-08-18T00:29:46;101114.75;;;25.61;63.33
55113;BME280;41006;50.920;3.456;2022-08-18T00:30:19;101106.69;;;25.60;63.96
55113;BME280;41006;50.920;3.456;2022-08-18T00:30:53;101108.75;;;25.56;63.85
55113;BME280;41006;50.920;3.456;2022-08-18T00:31:23;101106.81;;;25.58;63.59
55113;BME280;41006;50.920;3.456;2022-08-18T00:31:57;101097.34;;;25.51;63.99
55113;BME280;41006;50.920;3.456;2022-08-18T00:32:28;101105.97;;;25.45;64.46
55113;BME280;41006;50.920;3.456;2022-08-18T00:32:59;101105.97;;;25.45;63.98
55113;BME280;41006;50.920;3.456;2022-08-18T00:33:30;101102.25;;;25.46;64.03
55113;BME280;41006;50.920;3.456;2022-08-18T00:34:03;101103.56;;;25.40;64.37
55113;BME280;41006;50.920;3.456;2022-08-18T00:34:37;101096.50;;;25.38;64.26
55113;BME280;41006;50.920;3.456;2022-08-18T00:35:14;101102.94;;;25.37;64.54
55113;BME280;41006;50.920;3.456;2022-08-18T00:35:47;101102.28;;;25.33;64.89
55113;BME280;41006;50.920;3.456;2022-08-18T00:36:17;101097.69;;;25.46;64.28
55113;BME280;41006;50.920;3.456;2022-08-18T00:36:48;101104.84;;;25.60;63.98
55113;BME280;41006;50.920;3.456;2022-08-18T00:37:19;101106.34;;;25.64;63.39
55113;BME280;41006;50.920;3.456;2022-08-18T00:37:51;101107.44;;;25.62;63.72
55113;BME280;41006;50.920;3.456;2022-08-18T00:38:22;101103.97;;;25.60;63.52
55113;BME280;41006;50.920;3.456;2022-08-18T00:38:52;101103.78;;;25.50;63.90
55113;BME280;41006;50.920;3.456;2022-08-18T00:39:26;101097.69;;;25.46;63.64
55113;BME280;41006;50.920;3.456;2022-08-18T00:39:56;101100.75;;;25.42;63.79
55113;BME280;41006;50.920;3.456;2022-08-18T00:40:46;101098.13;;;25.40;63.80
55113;BME280;41006;50.920;3.456;2022-08-18T00:41:18;101105.19;;;25.43;63.75
55113;BME280;41006;50.920;3.456;2022-08-18T00:41:51;101108.78;;;25.43;64.50
55113;BME280;41006;50.920;3.456;2022-08-18T00:42:23;101109.84;;;25.54;63.93
55113;BME280;41006;50.920;3.456;2022-08-18T00:42:56;101102.22;;;25.59;63.66
55113;BME280;41006;50.920;3.456;2022-08-18T00:43:38;101102.78;;;25.51;64.07
55113;BME280;41006;50.920;3.456;2022-08-18T00:44:10;101102.16;;;25.35;64.61
55113;BME280;41006;50.920;3.456;2022-08-18T00:44:42;101103.91;;;25.36;64.58
55113;BME280;41006;50.920;3.456;2022-08-18T00:45:15;101108.16;;;25.40;64.27
55113;BME280;41006;50.920;3.456;2022-08-18T00:45:46;101107.56;;;25.35;64.55
55113;BME280;41006;50.920;3.456;2022-08-18T00:46:18;101107.25;;;25.39;64.28
55113;BME280;41006;50.920;3.456;2022-08-18T00:46:48;101111.19;;;25.35;64.61
55113;BME280;41006;50.920;3.456;2022-08-18T00:47:21;101103.56;;;25.27;64.73
55113;BME280;41006;50.920;3.456;2022-08-18T00:47:54;101100.16;;;25.11;65.58
55113;BME280;41006;50.920;3.456;2022-08-18T00:48:25;101097.47;;;25.11;65.81
55113;BME280;41006;50.920;3.456;2022-08-18T00:48:58;101107.47;;;25.23;65.44
55113;BME280;41006;50.920;3.456;2022-08-18T00:49:32;101105.19;;;25.17;65.51
55113;BME280;41006;50.920;3.456;2022-08-18T00:50:03;101105.31;;;25.28;64.89
55113;BME280;41006;50.920;3.456;2022-08-18T00:50:36;101103.69;;;25.39;64.44
55113;BME280;41006;50.920;3.456;2022-08-18T00:51:11;101109.97;;;25.39;64.32
55113;BME280;41006;50.920;3.456;2022-08-18T00:51:46;101101.72;;;25.41;64.16
55113;BME280;41006;50.920;3.456;2022-08-18T00:52:21;101099.75;;;25.43;64.04
55113;BME280;41006;50.920;3.456;2022-08-18T00:52:53;101101.59;;;25.42;64.32
55113;BME280;41006;50.920;3.456;2022-08-18T00:53:32;101106.28;;;25.27;64.46
55113;BME280;41006;50.920;3.456;2022-08-18T00:54:06;101109.00;;;25.40;63.79
55113;BME280;41006;50.920;3.456;2022-08-18T00:54:40;101109.97;;;25.52;64.10
55113;BME280;41006;50.920;3.456;2022-08-18T00:55:11;101112.47;;;25.55;63.10
55113;BME280;41006;50.920;3.456;2022-08-18T00:55:44;101111.72;;;25.53;63.78
55113;BME280;41006;50.920;3.456;2022-08-18T00:56:34;101107.03;;;25.55;63.63
55113;BME280;41006;50.920;3.456;2022-08-18T00:57:07;101107.88;;;25.56;63.24
55113;BME280;41006;50.920;3.456;2022-08-18T00:57:40;101111.25;;;25.59;62.71
55113;BME280;41006;50.920;3.456;2022-08-18T00:58:18;101113.31;;;25.69;62.42
55113;BME280;41006;50.920;3.456;2022-08-18T00:58:51;101111.13;;;25.74;62.07
55113;BME280;41006;50.920;3.456;2022-08-18T00:59:27;101109.38;;;25.73;61.61
55113;BME280;41006;50.920;3.456;2022-08-18T01:00:05;101117.22;;;25.64;61.56
55113;BME280;41006;50.920;3.456;2022-08-18T01:00:41;101112.47;;;25.55;62.31
55113;BME280;41006;50.920;3.456;2022-08-18T01:01:16;101119.50;;;25.58;62.64
55113;BME280;41006;50.920;3.456;2022-08-18T01:01:54;101119.19;;;25.62;62.32
55113;BME280;41006;50.920;3.456;2022-08-18T01:02:27;101118.97;;;25.53;62.59
55113;BME280;41006;50.920;3.456;2022-08-18T01:03:04;101115.06;;;25.44;62.41
55113;BME280;41006;50.920;3.456;2022-08-18T01:03:37;101114.88;;;25.34;63.26
55113;BME280;41006;50.920;3.456;2022-08-18T01:04:11;101111.28;;;25.34;63.87
55113;BME280;41006;50.920;3.456;2022-08-18T01:04:51;101115.06;;;25.18;64.10
55113;BME280;41006;50.920;3.456;2022-08-18T01:05:31;101117.22;;;25.26;64.26
55113;BME280;41006;50.920;3.456;2022-08-18T01:06:04;101113.97;;;25.21;63.78
55113;BME280;41006;50.920;3.456;2022-08-18T01:06:39;101118.22;;;25.12;64.08
55113;BME280;41006;50.920;3.456;2022-08-18T01:07:15;101119.53;;;25.32;63.60
55113;BME280;41006;50.920;3.456;2022-08-18T01:07:49;101113.31;;;25.17;63.17
55113;BME280;41006;50.920;3.456;2022-08-18T01:08:19;101114.06;;;25.19;63.43
55113;BME280;41006;50.920;3.456;2022-08-18T01:08:52;101113.97;;;25.21;63.59
55113;BME280;41006;50.920;3.456;2022-08-18T01:09:23;101120.25;;;25.21;63.39
55113;BME280;41006;50.920;3.456;2022-08-18T01:09:54;101120.25;;;25.21;63.34
55113;BME280;41006;50.920;3.456;2022-08-18T01:10:27;101116.56;;;25.22;63.40
55113;BME280;41006;50.920;3.456;2022-08-18T01:10:57;101127.81;;;25.30;63.34
55113;BME280;41006;50.920;3.456;2022-08-18T01:11:32;101121.47;;;25.17;63.53
55113;BME280;41006;50.920;3.456;2022-08-18T01:12:03;101121.25;;;25.20;63.82
55113;BME280;41006;50.920;3.456;2022-08-18T01:12:35;101121.50;;;25.30;63.25
55113;BME280;41006;50.920;3.456;2022-08-18T01:13:09;101122.38;;;25.30;63.51
55113;BME280;41006;50.920;3.456;2022-08-18T01:13:42;101125.84;;;25.33;63.39
55113;BME280;41006;50.920;3.456;2022-08-18T01:14:13;101126.38;;;25.25;63.70
55113;BME280;41006;50.920;3.456;2022-08-18T01:14:47;101125.69;;;25.21;63.56
55113;BME280;41006;50.920;3.456;2022-08-18T01:15:18;101123.13;;;25.20;63.44
55113;BME280;41006;50.920;3.456;2022-08-18T01:15:49;101125.25;;;25.15;64.13
55113;BME280;41006;50.920;3.456;2022-08-18T01:16:20;101131.91;;;25.23;63.88
55113;BME280;41006;50.920;3.456;2022-08-18T01:17:08;101134.19;;;25.29;63.58
55113;BME280;41006;50.920;3.456;2022-08-18T01:18:02;101133.88;;;25.34;63.59
55113;BME280;41006;50.920;3.456;2022-08-18T01:18:51;101133.78;;;25.36;63.60
55113;BME280;41006;50.920;3.456;2022-08-18T01:19:40;101141.06;;;25.35;63.63
55113;BME280;41006;50.920;3.456;2022-08-18T01:20:34;101131.81;;;25.25;64.20
55113;BME280;41006;50.920;3.456;2022-08-18T01:21:27;101129.31;;;25.35;63.73
55113;BME280;41006;50.920;3.456;2022-08-18T01:22:25;101133.97;;;25.33;63.96
55113;BME280;41006;50.920;3.456;2022-08-18T01:23:08;101135.94;;;25.30;63.30
55113;BME280;41006;50.920;3.456;2022-08-18T01:23:40;101144.84;;;25.33;63.10
55113;BME280;41006;50.920;3.456;2022-08-18T01:24:13;101139.88;;;25.26;63.02
55113;BME280;41006;50.920;3.456;2022-08-18T01:24:47;101143.53;;;25.25;63.07
55113;BME280;41006;50.920;3.456;2022-08-18T01:25:37;101144.41;;;25.13;63.41
55113;BME280;41006;50.920;3.456;2022-08-18T01:26:27;101141.09;;;25.08;63.90
55113;BME280;41006;50.920;3.456;2022-08-18T01:27:00;101147.75;;;25.04;64.06
55113;BME280;41006;50.920;3.456;2022-08-18T01:27:32;101147.31;;;25.10;64.10
55113;BME280;41006;50.920;3.456;2022-08-18T01:28:04;101147.66;;;25.18;64.07
55113;BME280;41006;50.920;3.456;2022-08-18T01:28:36;101149.38;;;25.19;64.09
55113;BME280;41006;50.920;3.456;2022-08-18T01:29:09;101151.34;;;25.17;63.98
55113;BME280;41006;50.920;3.456;2022-08-18T01:29:40;101145.91;;;25.17;63.55
55113;BME280;41006;50.920;3.456;2022-08-18T01:30:13;101151.97;;;25.21;63.58
55113;BME280;41006;50.920;3.456;2022-08-18T01:30:49;101151.34;;;25.17;63.17
55113;BME280;41006;50.920;3.456;2022-08-18T01:31:33;101154.69;;;25.21;62.85
55113;BME280;41006;50.920;3.456;2022-08-18T01:32:09;101159.16;;;25.09;63.47
55113;BME280;41006;50.920;3.456;2022-08-18T01:32:41;101149.25;;;25.08;64.10
55113;BME280;41006;50.920;3.456;2022-08-18T01:33:15;101145.25;;;25.01;64.02
55113;BME280;41006;50.920;3.456;2022-08-18T01:33:48;101155.03;;;25.03;63.65
55113;BME280;41006;50.920;3.456;2022-08-18T01:34:18;101152.09;;;25.06;63.65
55113;BME280;41006;50.920;3.456;2022-08-18T01:34:51;101152.41;;;25.02;63.57
55113;BME280;41006;50.920;3.456;2022-08-18T01:35:22;101154.59;;;24.97;63.70
55113;BME280;41006;50.920;3.456;2022-08-18T01:35:55;101160.34;;;25.05;63.47
55113;BME280;41006;50.920;3.456;2022-08-18T01:36:26;101161.28;;;24.91;63.92
55113;BME280;41006;50.920;3.456;2022-08-18T01:36:57;101156.50;;;24.94;63.78
55113;BME280;41006;50.920;3.456;2022-08-18T01:37:28;101165.97;;;24.89;63.58
55113;BME280;41006;50.920;3.456;2022-08-18T01:37:58;101165.72;;;24.79;64.16
55113;BME280;41006;50.920;3.456;2022-08-18T01:38:28;101168.03;;;24.85;64.10
55113;BME280;41006;50.920;3.456;2022-08-18T01:39:04;101168.03;;;24.85;64.41
55113;BME280;41006;50.920;3.456;2022-08-18T01:39:37;101169.97;;;24.96;64.39
55113;BME280;41006;50.920;3.456;2022-08-18T01:40:11;101167.91;;;24.87;64.13
55113;BME280;41006;50.920;3.456;2022-08-18T01:40:41;101170.53;;;24.88;64.53
55113;BME280;41006;50.920;3.456;2022-08-18T01:41:12;101169.88;;;24.85;64.64
55113;BME280;41006;50.920;3.456;2022-08-18T01:41:45;101172.25;;;24.89;64.58
55113;BME280;41006;50.920;3.456;2022-08-18T01:42:16;101166.72;;;24.91;64.40
55113;BME280;41006;50.920;3.456;2022-08-18T01:42:46;101172.34;;;24.88;64.46
55113;BME280;41006;50.920;3.456;2022-08-18T01:43:16;101170.72;;;24.85;64.68
55113;BME280;41006;50.920;3.456;2022-08-18T01:43:47;101172.59;;;24.85;65.13
55113;BME280;41006;50.920;3.456;2022-08-18T01:44:21;101164.44;;;24.85;65.03
55113;BME280;41006;50.920;3.456;2022-08-18T01:44:51;101164.53;;;24.83;64.82
55113;BME280;41006;50.920;3.456;2022-08-18T01:45:22;101168.63;;;24.76;64.33
55113;BME280;41006;50.920;3.456;2022-08-18T01:45:55;101173.50;;;24.71;65.02
55113;BME280;41006;50.920;3.456;2022-08-18T01:46:31;101166.25;;;24.71;65.09
55113;BME280;41006;50.920;3.456;2022-08-18T01:47:05;101170.59;;;24.74;64.58
55113;BME280;41006;50.920;3.456;2022-08-18T01:47:35;101173.94;;;24.65;64.89
55113;BME280;41006;50.920;3.456;2022-08-18T01:48:05;101173.16;;;24.63;65.47
55113;BME280;41006;50.920;3.456;2022-08-18T01:48:36;101179.25;;;24.66;65.36
55113;BME280;41006;50.920;3.456;2022-08-18T01:49:07;101180.28;;;24.78;65.07
55113;BME280;41006;50.920;3.456;2022-08-18T01:49:38;101179.50;;;24.76;65.21
55113;BME280;41006;50.920;3.456;2022-08-18T01:50:12;101175.47;;;24.54;65.25
55113;BME280;41006;50.920;3.456;2022-08-18T01:50:42;101182.28;;;24.62;65.57
55113;BME280;41006;50.920;3.456;2022-08-18T01:51:17;101185.97;;;24.61;65.69
55113;BME280;41006;50.920;3.456;2022-08-18T01:51:50;101183.34;;;24.59;65.44
55113;BME280;41006;50.920;3.456;2022-08-18T01:52:24;101185.56;;;24.67;64.73
55113;BME280;41006;50.920;3.456;2022-08-18T01:52:54;101184.56;;;24.68;64.86
55113;BME280;41006;50.920;3.456;2022-08-18T01:53:25;101183.81;;;24.66;65.30
55113;BME280;41006;50.920;3.456;2022-08-18T01:53:56;101183.81;;;24.66;65.13
55113;BME280;41006;50.920;3.456;2022-08-18T01:54:29;101175.66;;;24.66;65.53
55113;BME280;41006;50.920;3.456;2022-08-18T01:55:02;101181.09;;;24.66;65.45
55113;BME280;41006;50.920;3.456;2022-08-18T01:55:34;101177.25;;;24.55;65.48
55113;BME280;41006;50.920;3.456;2022-08-18T01:56:05;101187.06;;;24.44;66.49
55113;BME280;41006;50.920;3.456;2022-08-18T01:56:36;101177.28;;;24.41;66.64
55113;BME280;41006;50.920;3.456;2022-08-18T01:57:06;101176.13;;;24.45;66.33
55113;BME280;41006;50.920;3.456;2022-08-18T01:57:39;101175.69;;;24.51;66.15
55113;BME280;41006;50.920;3.456;2022-08-18T01:58:13;101173.84;;;24.52;66.56
55113;BME280;41006;50.920;3.456;2022-08-18T01:58:43;101177.44;;;24.52;66.47
55113;BME280;41006;50.920;3.456;2022-08-18T01:59:19;101175.22;;;24.45;66.79
55113;BME280;41006;50.920;3.456;2022-08-18T01:59:49;101171.09;;;24.39;66.97
55113;BME280;41006;50.920;3.456;2022-08-18T02:00:22;101172.75;;;24.42;66.64
55113;BME280;41006;50.920;3.456;2022-08-18T02:00:54;101176.13;;;24.45;66.19
55113;BME280;41006;50.920;3.456;2022-08-18T02:01:30;101177.84;;;24.46;65.37
55113;BME280;41006;50.920;3.456;2022-08-18T02:02:02;101170.50;;;24.48;64.92
55113;BME280;41006;50.920;3.456;2022-08-18T02:02:33;101170.53;;;24.34;65.87
55113;BME280;41006;50.920;3.456;2022-08-18T02:03:05;101171.72;;;24.30;65.51
55113;BME280;41006;50.920;3.456;2022-08-18T02:03:40;101166.81;;;24.08;66.13
55113;BME280;41006;50.920;3.456;2022-08-18T02:04:10;101168.38;;;24.12;66.66
55113;BME280;41006;50.920;3.456;2022-08-18T02:04:43;101172.03;;;24.11;66.37
55113;BME280;41006;50.920;3.456;2022-08-18T02:05:15;101172.22;;;24.08;66.44
55113;BME280;41006;50.920;3.456;2022-08-18T02:05:49;101171.75;;;24.01;66.76
55113;BME280;41006;50.920;3.456;2022-08-18T02:06:20;101175.03;;;24.06;66.67
55113;BME280;41006;50.920;3.456;2022-08-18T02:06:52;101171.28;;;23.94;67.57
55113;BME280;41006;50.920;3.456;2022-08-18T02:07:22;101174.56;;;23.99;67.67
55113;BME280;41006;50.920;3.456;2022-08-18T02:07:55;101172.94;;;23.82;67.96
55113;BME280;41006;50.920;3.456;2022-08-18T02:08:28;101175.34;;;23.73;68.36
55113;BME280;41006;50.920;3.456;2022-08-18T02:08:59;101169.81;;;23.74;68.50
55113;BME280;41006;50.920;3.456;2022-08-18T02:09:29;101166.75;;;23.80;68.34
55113;BME280;41006;50.920;3.456;2022-08-18T02:09:59;101173.31;;;23.76;68.28
55113;BME280;41006;50.920;3.456;2022-08-18T02:10:30;101175.53;;;23.70;68.42
55113;BME280;41006;50.920;3.456;2022-08-18T02:11:03;101169.53;;;23.64;68.21
55113;BME280;41006;50.920;3.456;2022-08-18T02:11:34;101178.94;;;23.73;68.41
55113;BME280;41006;50.920;3.456;2022-08-18T02:12:05;101177.41;;;23.83;67.98
55113;BME280;41006;50.920;3.456;2022-08-18T02:12:38;101173.91;;;23.96;67.93
55113;BME280;41006;50.920;3.456;2022-08-18T02:13:11;101177.38;;;23.98;67.76
55113;BME280;41006;50.920;3.456;2022-08-18T02:13:44;101178.84;;;24.04;67.38
55113;BME280;41006;50.920;3.456;2022-08-18T02:14:14;101177.38;;;23.98;67.42
55113;BME280;41006;50.920;3.456;2022-08-18T02:14:45;101174.56;;;23.99;67.50
55113;BME280;41006;50.920;3.456;2022-08-18T02:15:15;101174.19;;;24.06;67.57
55113;BME280;41006;50.920;3.456;2022-08-18T02:15:45;101172.22;;;24.08;67.24
55113;BME280;41006;50.920;3.456;2022-08-18T02:16:16;101175.72;;;24.10;67.22
55113;BME280;41006;50.920;3.456;2022-08-18T02:16:48;101168.56;;;24.09;66.77
55113;BME280;41006;50.920;3.456;2022-08-18T02:17:21;101172.22;;;24.22;66.85
55113;BME280;41006;50.920;3.456;2022-08-18T02:17:51;101175.59;;;24.26;66.72
55113;BME280;41006;50.920;3.456;2022-08-18T02:18:24;101172.78;;;24.27;66.79
55113;BME280;41006;50.920;3.456;2022-08-18T02:18:56;101168.69;;;24.34;66.64
55113;BME280;41006;50.920;3.456;2022-08-18T02:19:33;101175.38;;;24.29;66.80
55113;BME280;41006;50.920;3.456;2022-08-18T02:20:04;101173.91;;;24.37;66.30
55113;BME280;41006;50.920;3.456;2022-08-18T02:20:35;101175.59;;;24.26;66.39
55113;BME280;41006;50.920;3.456;2022-08-18T02:21:10;101174.81;;;24.24;66.86
55113;BME280;41006;50.920;3.456;2022-08-18T02:21:40;101171.50;;;24.33;66.35
55113;BME280;41006;50.920;3.456;2022-08-18T02:22:12;101170.72;;;24.31;66.33
55113;BME280;41006;50.920;3.456;2022-08-18T02:22:46;101172.84;;;24.40;65.81
55113;BME280;41006;50.920;3.456;2022-08-18T02:23:17;101165.88;;;24.36;65.73
55113;BME280;41006;50.920;3.456;2022-08-18T02:23:49;101171.28;;;24.36;65.82
55113;BME280;41006;50.920;3.456;2022-08-18T02:24:22;101172.38;;;24.33;66.50
55113;BME280;41006;50.920;3.456;2022-08-18T02:24:55;101177.91;;;24.32;66.31
55113;BME280;41006;50.920;3.456;2022-08-18T02:25:25;101171.28;;;24.36;66.17
55113;BME280;41006;50.920;3.456;2022-08-18T02:25:56;101160.50;;;24.22;66.44
55113;BME280;41006;50.920;3.456;2022-08-18T02:26:26;101173.25;;;24.34;66.60
55113;BME280;41006;50.920;3.456;2022-08-18T02:26:57;101172.03;;;24.38;66.23
55113;BME280;41006;50.920;3.456;2022-08-18T02:27:30;101177.47;;;24.38;66.42
55113;BME280;41006;50.920;3.456;2022-08-18T02:28:01;101177.47;;;24.38;66.11
55113;BME280;41006;50.920;3.456;2022-08-18T02:28:36;101180.19;;;24.38;66.28
55113;BME280;41006;50.920;3.456;2022-08-18T02:29:09;101174.75;;;24.38;66.40
55113;BME280;41006;50.920;3.456;2022-08-18T02:29:42;101166.63;;;24.38;66.52
55113;BME280;41006;50.920;3.456;2022-08-18T02:30:13;101179.06;;;24.28;66.37
55113;BME280;41006;50.920;3.456;2022-08-18T02:30:46;101177.34;;;24.27;66.78
55113;BME280;41006;50.920;3.456;2022-08-18T02:31:19;101175.09;;;24.33;66.52
55113;BME280;41006;50.920;3.456;2022-08-18T02:31:52;101177.69;;;24.35;66.41
55113;BME280;41006;50.920;3.456;2022-08-18T02:32:25;101175.00;;;24.35;65.95
55113;BME280;41006;50.920;3.456;2022-08-18T02:32:56;101174.00;;;24.36;66.25
55113;BME280;41006;50.920;3.456;2022-08-18T02:33:26;101182.75;;;24.27;66.37
55113;BME280;41006;50.920;3.456;2022-08-18T02:33:56;101176.16;;;24.31;66.31
55113;BME280;41006;50.920;3.456;2022-08-18T02:34:29;101177.13;;;24.30;66.40
55113;BME280;41006;50.920;3.456;2022-08-18T02:35:00;101179.06;;;24.28;66.25
55113;BME280;41006;50.920;3.456;2022-08-18T02:35:33;101173.59;;;24.42;66.35
55113;BME280;41006;50.920;3.456;2022-08-18T02:36:04;101162.38;;;24.34;66.28
55113;BME280;41006;50.920;3.456;2022-08-18T02:36:36;101171.94;;;24.39;66.13
55113;BME280;41006;50.920;3.456;2022-08-18T02:37:07;101168.69;;;24.34;66.70
55113;BME280;41006;50.920;3.456;2022-08-18T02:37:38;101175.44;;;24.42;66.35
55113;BME280;41006;50.920;3.456;2022-08-18T02:38:08;101172.41;;;24.46;66.26
55113;BME280;41006;50.920;3.456;2022-08-18T02:38:42;101173.34;;;24.32;66.40
55113;BME280;41006;50.920;3.456;2022-08-18T02:39:13;101168.38;;;24.39;66.22
55113;BME280;41006;50.920;3.456;2022-08-18T02:39:43;101169.34;;;24.38;66.14
55113;BME280;41006;50.920;3.456;2022-08-18T02:40:18;101173.03;;;24.37;66.07
55113;BME280;41006;50.920;3.456;2022-08-18T02:41:00;101174.47;;;24.43;65.91
55113;BME280;41006;50.920;3.456;2022-08-18T02:41:31;101170.31;;;24.37;65.88
55113;BME280;41006;50.920;3.456;2022-08-18T02:42:05;101171.09;;;24.39;66.17
55113;BME280;41006;50.920;3.456;2022-08-18T02:42:36;101171.38;;;24.34;66.32
55113;BME280;41006;50.920;3.456;2022-08-18T02:43:10;101171.09;;;24.39;66.45
55113;BME280;41006;50.920;3.456;2022-08-18T02:43:45;101169.25;;;24.39;66.16
55113;BME280;41006;50.920;3.456;2022-08-18T02:44:17;101170.88;;;24.42;66.25
55113;BME280;41006;50.920;3.456;2022-08-18T02:44:48;101165.66;;;24.39;66.62
55113;BME280;41006;50.920;3.456;2022-08-18T02:45:21;101167.06;;;24.32;66.33
55113;BME280;41006;50.920;3.456;2022-08-18T02:45:54;101165.88;;;24.36;66.17
55113;BME280;41006;50.920;3.456;2022-08-18T02:46:25;101168.94;;;24.44;66.38
55113;BME280;41006;50.920;3.456;2022-08-18T02:46:59;101167.63;;;24.37;65.99
55113;BME280;41006;50.920;3.456;2022-08-18T02:47:31;101171.28;;;24.36;66.50
55113;BME280;41006;50.920;3.456;2022-08-18T02:48:04;101161.47;;;24.48;66.13
55113;BME280;41006;50.920;3.456;2022-08-18T02:48:34;101172.00;;;24.52;65.64
55113;BME280;41006;50.920;3.456;2022-08-18T02:49:05;101169.59;;;24.48;65.95
55113;BME280;41006;50.920;3.456;2022-08-18T02:49:37;101177.63;;;24.49;65.94
55113;BME280;41006;50.920;3.456;2022-08-18T02:50:10;101169.88;;;24.58;65.44
55113;BME280;41006;50.920;3.456;2022-08-18T02:50:45;101175.47;;;24.54;65.56
55113;BME280;41006;50.920;3.456;2022-08-18T02:51:16;101176.88;;;24.47;65.73
55113;BME280;41006;50.920;3.456;2022-08-18T02:51:49;101174.25;;;24.46;66.22
55113;BME280;41006;50.920;3.456;2022-08-18T02:52:20;101182.19;;;24.49;65.79
55113;BME280;41006;50.920;3.456;2022-08-18T02:52:53;101180.25;;;24.51;65.58
55113;BME280;41006;50.920;3.456;2022-08-18T02:53:24;101173.97;;;24.50;65.39
55113;BME280;41006;50.920;3.456;2022-08-18T02:53:54;101181.09;;;24.51;64.90